Time;durP1;ratioP1;P1;durP2;ratioP2;P2;SDS_P1;SDS_P2;PMS_P1;PMS_P2;Temp;Humidity;BMP_temperature;BMP_pressure;BME280_temperature;BME280_humidity;BME280_pressure;Samples;Min_cycle;Max_cycle;Signal;HPM_P1;HPM_P2
2022/07/11 00:00:12;;;;;;;2.05;1.65;;;;;;;19.80;53.53;100179.09;341989;28;1651;-78
2022/07/11 00:00:24;;;;;;;2.53;1.60;;;;;;;19.80;53.43;100181.75;342714;28;1071;-80
2022/07/11 00:00:36;;;;;;;2.63;1.60;;;;;;;19.78;53.57;100173.06;342489;28;1072;-78
2022/07/11 00:00:48;;;;;;;2.80;1.40;;;;;;;19.78;53.63;100180.13;343546;28;1050;-79
2022/07/11 00:01:00;;;;;;;2.88;1.60;;;;;;;19.77;53.64;100179.28;342127;28;1180;-79
2022/07/11 00:01:12;;;;;;;2.67;1.60;;;;;;;19.77;53.63;100174.00;342183;28;2182;-78
2022/07/11 00:01:24;;;;;;;2.63;1.60;;;;;;;19.77;53.61;100181.91;342530;28;1132;-78
2022/07/11 00:01:36;;;;;;;3.33;1.60;;;;;;;19.74;53.56;100182.13;342299;28;1092;-78
2022/07/11 00:01:48;;;;;;;3.20;1.70;;;;;;;19.72;53.52;100182.22;342051;28;1109;-78
2022/07/11 00:02:01;;;;;;;2.20;1.70;;;;;;;19.66;53.64;100179.06;342453;28;1156;-78
2022/07/11 00:02:14;;;;;;;1.70;1.60;;;;;;;19.65;53.69;100177.38;342282;28;1087;-78
2022/07/11 00:02:26;;;;;;;1.60;1.50;;;;;;;19.67;53.68;100175.50;342118;28;1751;-81
2022/07/11 00:02:41;;;;;;;1.73;1.40;;;;;;;19.65;53.75;100182.66;342213;28;1716;-79
2022/07/11 00:02:53;;;;;;;1.88;1.50;;;;;;;19.54;53.93;100184.16;343180;28;1480;-79
2022/07/11 00:03:05;;;;;;;1.92;1.50;;;;;;;19.57;53.85;100180.47;343055;28;1622;-78
2022/07/11 00:03:17;;;;;;;1.80;1.50;;;;;;;19.59;53.81;100178.59;342389;28;1027;-78
2022/07/11 00:03:29;;;;;;;2.08;1.52;;;;;;;19.60;54.01;100184.72;342150;28;1750;-79
2022/07/11 00:03:41;;;;;;;2.03;1.50;;;;;;;19.60;53.90;100177.69;343375;28;1567;-78
2022/07/11 00:03:54;;;;;;;1.70;1.52;;;;;;;19.55;53.89;100177.94;343419;28;1100;-78
2022/07/11 00:04:06;;;;;;;2.45;1.65;;;;;;;19.59;54.13;100183.03;343709;28;891;-78
2022/07/11 00:04:19;;;;;;;2.80;1.50;;;;;;;19.63;54.22;100180.09;343437;28;1075;-78
2022/07/11 00:04:32;;;;;;;3.17;1.50;;;;;;;19.66;53.94;100173.78;343288;28;1828;-79
2022/07/11 00:04:45;;;;;;;2.50;1.58;;;;;;;19.69;53.94;100174.44;343570;28;1710;-80
2022/07/11 00:04:57;;;;;;;2.17;1.73;;;;;;;19.70;54.11;100176.16;343178;28;1914;-77
2022/07/11 00:05:10;;;;;;;3.50;1.80;;;;;;;19.67;53.92;100175.50;343591;28;1417;-78
2022/07/11 00:05:22;;;;;;;2.78;1.67;;;;;;;19.69;53.91;100173.59;343131;28;2077;-83
2022/07/11 00:05:34;;;;;;;1.70;1.52;;;;;;;19.72;53.91;100173.47;343363;28;1614;-79
2022/07/11 00:05:46;;;;;;;1.60;1.50;;;;;;;19.75;53.78;100173.25;343708;28;1108;-79
2022/07/11 00:05:58;;;;;;;1.83;1.58;;;;;;;19.76;53.91;100174.97;343864;28;1196;-80
2022/07/11 00:06:10;;;;;;;1.98;1.60;;;;;;;19.75;53.80;100173.25;344895;28;1267;-80
2022/07/11 00:06:22;;;;;;;1.75;1.50;;;;;;;19.75;53.95;100179.38;344126;28;1119;-80
2022/07/11 00:06:34;;;;;;;2.20;1.50;;;;;;;19.73;54.27;100175.13;342949;28;2049;-81
2022/07/11 00:06:46;;;;;;;2.33;1.60;;;;;;;19.75;53.79;100173.25;343317;28;1230;-80
2022/07/11 00:06:59;;;;;;;1.90;1.60;;;;;;;19.76;53.81;100169.69;344506;28;1110;-77
2022/07/11 00:07:11;;;;;;;1.83;1.70;;;;;;;19.78;53.73;100178.34;343616;28;1083;-78
2022/07/11 00:07:23;;;;;;;2.50;1.63;;;;;;;19.78;53.73;100178.34;343501;28;1199;-80
2022/07/11 00:07:36;;;;;;;2.42;1.55;;;;;;;19.78;53.76;100173.06;343381;28;1046;-80
2022/07/11 00:07:48;;;;;;;2.17;1.60;;;;;;;19.79;53.89;100169.47;343429;28;1074;-78
2022/07/11 00:08:00;;;;;;;2.90;1.50;;;;;;;19.79;53.68;100169.47;343134;28;2020;-77
2022/07/11 00:08:12;;;;;;;2.30;1.60;;;;;;;19.78;53.65;100167.81;343403;28;1063;-78
2022/07/11 00:08:24;;;;;;;1.70;1.50;;;;;;;19.80;53.58;100170.31;343784;28;1078;-77
2022/07/11 00:08:35;;;;;;;1.60;1.50;;;;;;;19.83;53.57;100170.16;343419;28;2047;-78
2022/07/11 00:08:47;;;;;;;1.90;1.58;;;;;;;19.82;53.98;100169.31;342270;28;1661;-79
2022/07/11 00:09:00;;;;;;;3.30;1.60;;;;;;;19.82;54.24;100169.31;342807;28;1580;-78
2022/07/11 00:09:12;;;;;;;3.13;1.58;;;;;;;19.81;54.13;100172.88;343438;28;1063;-77
2022/07/11 00:09:24;;;;;;;2.15;1.60;;;;;;;19.83;54.15;100170.97;343563;28;1169;-77
2022/07/11 00:09:36;;;;;;;2.50;1.60;;;;;;;19.84;54.19;100172.69;342146;28;1832;-80
2022/07/11 00:09:48;;;;;;;2.30;1.50;;;;;;;19.85;54.23;100174.38;343515;28;1640;-79
2022/07/11 00:10:01;;;;;;;1.70;1.60;;;;;;;19.85;53.94;100177.00;342828;28;1639;-79
2022/07/11 00:10:13;;;;;;;1.70;1.60;;;;;;;19.87;54.06;100171.66;341908;28;1429;-78
2022/07/11 00:10:25;;;;;;;1.58;1.48;;;;;;;19.88;53.76;100171.56;342624;28;1109;-78
2022/07/11 00:10:37;;;;;;;1.60;1.50;;;;;;;19.89;53.90;100167.97;343364;28;1278;-78
2022/07/11 00:10:49;;;;;;;1.60;1.50;;;;;;;19.90;53.98;100172.31;342046;28;1161;-78
2022/07/11 00:11:01;;;;;;;1.75;1.58;;;;;;;19.89;54.12;100167.97;342202;28;1267;-80
2022/07/11 00:11:13;;;;;;;1.92;1.60;;;;;;;19.90;54.32;100172.31;342263;28;1504;-78
2022/07/11 00:11:25;;;;;;;2.20;1.70;;;;;;;19.89;54.27;100170.59;341408;28;1650;-78
2022/07/11 00:11:37;;;;;;;1.95;1.60;;;;;;;19.91;54.19;100173.97;341368;29;757;-78
2022/07/11 00:11:49;;;;;;;1.80;1.60;;;;;;;19.92;53.91;100172.19;340536;29;1040;-78
2022/07/11 00:12:02;;;;;;;1.70;1.50;;;;;;;19.92;53.96;100165.13;341692;28;1260;-78
2022/07/11 00:12:14;;;;;;;1.70;1.60;;;;;;;19.90;54.10;100168.78;341326;28;1161;-78
2022/07/11 00:12:26;;;;;;;1.83;1.60;;;;;;;19.90;53.95;100169.66;342180;28;1620;-80
2022/07/11 00:12:38;;;;;;;1.73;1.60;;;;;;;19.90;53.87;100164.38;341548;28;1671;-78
2022/07/11 00:12:50;;;;;;;1.80;1.70;;;;;;;19.92;53.82;100174.81;341567;28;1591;-77
2022/07/11 00:13:02;;;;;;;1.90;1.70;;;;;;;19.94;53.68;100167.66;341815;28;1596;-78
2022/07/11 00:13:14;;;;;;;2.10;1.60;;;;;;;19.95;53.59;100170.19;341372;28;1137;-78
2022/07/11 00:13:26;;;;;;;2.58;1.65;;;;;;;19.98;53.74;100170.94;342383;28;1612;-80
2022/07/11 00:13:38;;;;;;;2.72;1.65;;;;;;;19.98;53.68;100174.47;341767;28;1122;-78
2022/07/11 00:13:51;;;;;;;2.72;1.67;;;;;;;19.97;53.70;100166.63;341431;28;1174;-78
2022/07/11 00:14:03;;;;;;;2.53;1.63;;;;;;;19.98;53.63;100168.31;342975;28;1232;-77
2022/07/11 00:14:16;;;;;;;2.63;1.65;;;;;;;19.92;53.53;100170.41;344373;28;1605;-77
2022/07/11 00:14:28;;;;;;;3.25;1.63;;;;;;;19.93;53.77;100166.81;343254;28;1586;-78
2022/07/11 00:14:41;;;;;;;3.10;1.60;;;;;;;19.95;53.66;100172.84;343496;28;1686;-78
2022/07/11 00:14:54;;;;;;;2.63;1.60;;;;;;;19.95;53.61;100170.19;343396;28;1337;-77
2022/07/11 00:15:06;;;;;;;2.42;1.60;;;;;;;19.99;53.77;100170.03;342547;28;1564;-78
2022/07/11 00:15:18;;;;;;;1.90;1.60;;;;;;;19.99;54.17;100170.03;342074;28;1034;-78
2022/07/11 00:15:30;;;;;;;1.90;1.70;;;;;;;19.99;54.14;100170.03;342528;28;1329;-78
2022/07/11 00:15:43;;;;;;;1.75;1.60;;;;;;;20.00;54.05;100171.69;343282;28;1245;-78
2022/07/11 00:15:55;;;;;;;2.35;1.70;;;;;;;20.00;54.38;100166.44;342146;28;1294;-81
2022/07/11 00:16:07;;;;;;;2.60;1.80;;;;;;;20.02;54.20;100169.81;342789;28;1082;-78
2022/07/11 00:16:23;;;;;;;1.80;1.70;;;;;;;20.01;53.88;100181.34;341770;28;1894;-80
2022/07/11 00:16:35;;;;;;;1.70;1.60;;;;;;;20.03;53.88;100171.53;341143;28;1223;-79
2022/07/11 00:16:48;;;;;;;1.80;1.50;;;;;;;20.01;53.72;100174.25;342087;28;1056;-78
2022/07/11 00:17:00;;;;;;;2.50;1.50;;;;;;;20.02;53.63;100172.44;343004;28;1254;-78
2022/07/11 00:17:12;;;;;;;2.50;1.60;;;;;;;20.02;53.48;100175.09;342491;28;1066;-78
2022/07/11 00:17:24;;;;;;;2.22;1.60;;;;;;;20.02;53.35;100175.97;342134;28;1749;-78
2022/07/11 00:17:36;;;;;;;2.58;1.63;;;;;;;20.01;53.37;100170.78;342167;28;1190;-78
2022/07/11 00:17:48;;;;;;;2.33;1.60;;;;;;;20.01;53.35;100170.78;342318;28;1145;-78
2022/07/11 00:18:00;;;;;;;2.47;1.60;;;;;;;20.02;53.59;100170.69;342291;28;1207;-78
2022/07/11 00:18:12;;;;;;;1.83;1.60;;;;;;;20.03;53.38;100176.81;342066;28;1592;-80
2022/07/11 00:18:25;;;;;;;2.08;1.60;;;;;;;20.04;53.40;100167.91;341502;28;1477;-80
2022/07/11 00:18:37;;;;;;;2.33;1.63;;;;;;;20.03;53.41;100166.25;342137;28;1447;-78
2022/07/11 00:18:49;;;;;;;2.08;1.63;;;;;;;20.03;53.41;100167.09;342634;28;1154;-77
2022/07/11 00:19:01;;;;;;;2.58;1.67;;;;;;;20.02;53.40;100169.81;342461;28;1212;-78
2022/07/11 00:19:13;;;;;;;2.67;1.60;;;;;;;20.01;53.28;100168.13;343585;28;1231;-79
2022/07/11 00:19:26;;;;;;;2.85;1.70;;;;;;;20.00;53.24;100171.69;342506;28;1357;-79
2022/07/11 00:19:38;;;;;;;2.65;1.67;;;;;;;19.99;53.35;100170.88;341845;28;862;-79
2022/07/11 00:19:50;;;;;;;2.30;1.63;;;;;;;19.87;54.14;100172.47;340960;29;1176;-78
2022/07/11 00:20:02;;;;;;;2.47;1.63;;;;;;;19.74;54.19;100166.31;341012;28;1828;-79
2022/07/11 00:20:14;;;;;;;3.05;1.60;;;;;;;19.76;54.26;100169.69;341915;28;1327;-80
2022/07/11 00:20:26;;;;;;;2.90;1.60;;;;;;;19.79;54.01;100169.47;340862;28;1485;-80
2022/07/11 00:20:38;;;;;;;2.75;1.60;;;;;;;19.79;54.14;100173.91;342053;28;1699;-78
2022/07/11 00:20:50;;;;;;;2.42;1.50;;;;;;;19.83;53.88;100170.97;342679;28;1058;-77
2022/07/11 00:21:02;;;;;;;1.65;1.48;;;;;;;19.86;54.04;100167.28;343027;28;1208;-78
2022/07/11 00:21:14;;;;;;;2.50;1.50;;;;;;;19.88;54.25;100168.91;342690;28;1015;-80
2022/07/11 00:21:26;;;;;;;2.53;1.50;;;;;;;19.90;54.17;100171.44;342106;28;1476;-80
2022/07/11 00:21:38;;;;;;;2.10;1.50;;;;;;;19.89;54.11;100162.69;343462;28;1571;-80
2022/07/11 00:21:51;;;;;;;1.77;1.50;;;;;;;19.90;53.80;100164.38;343382;28;1071;-80
2022/07/11 00:22:04;;;;;;;2.50;1.70;;;;;;;19.92;54.00;100170.41;343339;28;1366;-78
2022/07/11 00:22:16;;;;;;;2.60;1.73;;;;;;;19.92;53.51;100170.41;343441;28;1072;-78
2022/07/11 00:22:28;;;;;;;1.60;1.50;;;;;;;19.96;53.91;100171.06;342899;28;1469;-80
2022/07/11 00:22:40;;;;;;;1.67;1.58;;;;;;;19.95;54.17;100170.19;343612;28;1118;-79
2022/07/11 00:22:52;;;;;;;1.80;1.65;;;;;;;19.98;54.22;100168.31;344648;28;1547;-79
2022/07/11 00:23:04;;;;;;;1.83;1.60;;;;;;;19.98;54.01;100165.69;342996;28;1888;-80
2022/07/11 00:23:16;;;;;;;1.93;1.60;;;;;;;19.99;54.23;100170.88;342289;28;1224;-80
2022/07/11 00:23:28;;;;;;;1.73;1.60;;;;;;;19.99;54.07;100170.03;342219;28;1757;-81
2022/07/11 00:23:40;;;;;;;1.70;1.60;;;;;;;20.01;53.81;100170.78;342345;28;1472;-80
2022/07/11 00:23:53;;;;;;;2.58;1.65;;;;;;;20.00;53.79;100166.44;341881;28;1432;-78
2022/07/11 00:24:07;;;;;;;2.78;1.70;;;;;;;19.99;53.69;100172.66;342230;28;1376;-79
2022/07/11 00:24:20;;;;;;;2.10;1.70;;;;;;;19.99;53.98;100170.03;342120;28;1035;-78
2022/07/11 00:24:33;;;;;;;2.00;1.80;;;;;;;20.01;53.86;100168.13;341334;28;1730;-79
2022/07/11 00:24:45;;;;;;;1.70;1.60;;;;;;;20.01;54.12;100168.13;342022;28;1674;-78
2022/07/11 00:24:57;;;;;;;1.65;1.55;;;;;;;20.03;54.07;100171.53;341587;28;1624;-78
2022/07/11 00:25:09;;;;;;;1.73;1.55;;;;;;;20.02;53.97;100172.44;341555;28;1659;-80
2022/07/11 00:25:21;;;;;;;2.33;1.63;;;;;;;20.02;53.86;100175.09;342185;28;1117;-78
2022/07/11 00:25:33;;;;;;;2.05;1.70;;;;;;;20.03;53.80;100163.59;341900;28;2029;-77
2022/07/11 00:25:45;;;;;;;1.95;1.67;;;;;;;20.01;53.50;100168.97;341887;28;1819;-78
2022/07/11 00:25:57;;;;;;;1.65;1.55;;;;;;;20.02;53.59;100164.53;341950;28;1240;-78
2022/07/11 00:26:09;;;;;;;1.70;1.60;;;;;;;20.04;53.54;100167.91;342289;28;1031;-78
2022/07/11 00:26:21;;;;;;;1.63;1.52;;;;;;;20.04;53.38;100167.91;342238;28;1176;-78
2022/07/11 00:26:37;;;;;;;1.60;1.50;;;;;;;20.05;53.37;100167.84;342412;28;1797;-79
2022/07/11 00:26:49;;;;;;;1.65;1.50;;;;;;;20.05;53.15;100169.63;344015;28;1997;-78
2022/07/11 00:27:01;;;;;;;2.38;1.63;;;;;;;20.05;53.20;100165.19;343153;28;1645;-78
2022/07/11 00:27:13;;;;;;;2.20;1.60;;;;;;;20.06;53.21;100171.31;342802;28;1104;-78
2022/07/11 00:27:25;;;;;;;1.70;1.60;;;;;;;20.08;53.08;100164.16;341318;28;2058;-78
2022/07/11 00:27:37;;;;;;;1.70;1.50;;;;;;;20.09;53.29;100168.50;342513;28;1473;-77
2022/07/11 00:27:49;;;;;;;2.20;1.60;;;;;;;20.09;53.44;100166.69;341247;28;2133;-78
2022/07/11 00:28:02;;;;;;;2.58;1.70;;;;;;;20.10;53.60;100159.63;342192;28;1161;-78
2022/07/11 00:28:14;;;;;;;2.30;1.70;;;;;;;20.10;53.60;100163.13;341543;28;1820;-79
2022/07/11 00:28:26;;;;;;;1.80;1.70;;;;;;;20.08;53.65;100164.16;341252;28;1582;-78
2022/07/11 00:28:38;;;;;;;1.98;1.80;;;;;;;20.09;53.54;100164.06;340525;29;1420;-78
2022/07/11 00:28:50;;;;;;;2.63;1.77;;;;;;;20.09;53.61;100165.84;341928;28;1354;-77
2022/07/11 00:29:03;;;;;;;2.83;1.67;;;;;;;20.09;53.80;100160.56;343209;28;1221;-78
2022/07/11 00:29:16;;;;;;;3.50;1.73;;;;;;;20.11;53.83;100169.25;342243;28;1382;-78
2022/07/11 00:29:29;;;;;;;2.35;1.90;;;;;;;20.12;53.72;100163.00;342226;28;1110;-78
2022/07/11 00:29:41;;;;;;;2.10;1.80;;;;;;;20.12;53.73;100163.88;342270;28;1186;-78
2022/07/11 00:29:53;;;;;;;1.88;1.70;;;;;;;20.13;54.00;100162.91;341928;28;1734;-81
2022/07/11 00:30:05;;;;;;;1.63;1.52;;;;;;;20.14;53.69;100163.75;341570;28;1624;-81
2022/07/11 00:30:18;;;;;;;1.55;1.45;;;;;;;20.14;53.42;100169.03;343459;28;1719;-78
2022/07/11 00:30:30;;;;;;;1.52;1.42;;;;;;;20.14;53.42;100163.75;343353;28;1696;-78
2022/07/11 00:30:42;;;;;;;1.50;1.40;;;;;;;20.17;53.86;100166.19;342119;28;1671;-78
2022/07/11 00:30:54;;;;;;;1.70;1.60;;;;;;;20.14;53.44;100169.03;342142;28;1022;-78
2022/07/11 00:31:08;;;;;;;3.33;1.73;;;;;;;20.16;53.32;100169.78;341504;28;2038;-78
2022/07/11 00:31:20;;;;;;;3.40;1.73;;;;;;;20.16;53.70;100167.13;342101;28;1064;-78
2022/07/11 00:31:32;;;;;;;2.13;1.65;;;;;;;20.14;53.65;100166.38;342407;28;1140;-78
2022/07/11 00:31:44;;;;;;;1.88;1.63;;;;;;;20.14;53.73;100158.47;342082;28;1096;-80
2022/07/11 00:31:57;;;;;;;2.20;1.70;;;;;;;20.12;53.92;100160.34;342045;28;1441;-78
2022/07/11 00:32:09;;;;;;;2.53;1.75;;;;;;;20.13;53.94;100156.78;342009;28;1237;-78
2022/07/11 00:32:21;;;;;;;2.10;1.63;;;;;;;20.15;53.86;100162.81;342338;28;1258;-78
2022/07/11 00:32:33;;;;;;;1.58;1.40;;;;;;;20.14;53.50;100163.75;341755;28;2041;-78
2022/07/11 00:32:45;;;;;;;2.22;1.60;;;;;;;20.13;53.54;100159.44;342102;28;1753;-79
2022/07/11 00:32:57;;;;;;;2.22;1.70;;;;;;;20.09;53.71;100156.13;342999;28;1255;-78
2022/07/11 00:33:09;;;;;;;1.83;1.70;;;;;;;20.08;53.45;100159.72;343016;28;1835;-78
2022/07/11 00:33:21;;;;;;;1.80;1.70;;;;;;;20.07;53.77;100159.81;343396;28;1150;-77
2022/07/11 00:33:34;;;;;;;1.80;1.70;;;;;;;20.06;53.83;100166.91;342933;28;1650;-78
2022/07/11 00:33:46;;;;;;;1.88;1.70;;;;;;;20.07;53.93;100162.47;342708;28;1263;-78
2022/07/11 00:33:58;;;;;;;1.80;1.70;;;;;;;20.09;53.91;100160.56;342027;28;1262;-80
2022/07/11 00:34:10;;;;;;;1.90;1.70;;;;;;;20.10;53.76;100164.88;342290;28;1483;-78
2022/07/11 00:34:23;;;;;;;2.22;1.70;;;;;;;20.11;54.35;100164.81;342371;28;1072;-78
2022/07/11 00:34:35;;;;;;;2.45;1.70;;;;;;;20.13;53.85;100159.44;341917;28;1804;-78
2022/07/11 00:34:47;;;;;;;2.05;1.60;;;;;;;20.13;53.72;100156.78;341910;28;1678;-78
2022/07/11 00:34:59;;;;;;;2.05;1.60;;;;;;;20.13;53.50;100159.44;341997;28;1221;-78
2022/07/11 00:35:11;;;;;;;2.20;1.67;;;;;;;20.11;53.40;100169.25;341915;28;1702;-78
2022/07/11 00:35:23;;;;;;;1.98;1.60;;;;;;;20.12;53.44;100157.72;342097;28;1083;-78
2022/07/11 00:35:35;;;;;;;1.90;1.67;;;;;;;20.12;53.13;100161.22;340987;28;1698;-77
2022/07/11 00:35:47;;;;;;;2.30;1.75;;;;;;;20.10;53.45;100156.97;340842;29;1031;-78
2022/07/11 00:35:59;;;;;;;2.40;1.70;;;;;;;20.10;53.22;100159.63;341360;28;1212;-80
2022/07/11 00:36:12;;;;;;;1.92;1.63;;;;;;;20.09;53.21;100163.22;342239;28;1215;-77
2022/07/11 00:36:24;;;;;;;2.28;1.60;;;;;;;20.08;53.35;100159.72;342297;28;1027;-78
2022/07/11 00:36:36;;;;;;;2.10;1.63;;;;;;;20.09;53.23;100155.28;341853;28;1495;-77
2022/07/11 00:36:48;;;;;;;1.90;1.70;;;;;;;20.08;53.29;100158.88;342999;28;1032;-80
2022/07/11 00:37:00;;;;;;;1.70;1.60;;;;;;;20.08;53.40;100162.38;344035;28;1677;-78
2022/07/11 00:37:12;;;;;;;1.70;1.60;;;;;;;20.09;53.23;100160.56;343575;28;1163;-80
2022/07/11 00:37:24;;;;;;;1.60;1.50;;;;;;;20.08;53.29;100156.22;342719;28;1349;-78
2022/07/11 00:37:36;;;;;;;2.10;1.60;;;;;;;20.08;53.62;100156.22;343302;28;1460;-80
2022/07/11 00:37:48;;;;;;;2.00;1.70;;;;;;;20.08;53.34;100157.09;343173;28;1579;-80
2022/07/11 00:38:00;;;;;;;1.73;1.58;;;;;;;20.07;53.34;100160.66;343390;28;1460;-77
2022/07/11 00:38:12;;;;;;;1.63;1.52;;;;;;;20.09;53.28;100161.41;343350;28;1293;-80
2022/07/11 00:38:24;;;;;;;1.77;1.67;;;;;;;20.08;53.31;100156.22;341661;28;1633;-79
2022/07/11 00:38:37;;;;;;;1.92;1.75;;;;;;;20.08;53.45;100154.47;340973;29;1012;-78
2022/07/11 00:38:49;;;;;;;1.80;1.70;;;;;;;20.09;53.38;100155.28;341884;28;1194;-79
2022/07/11 00:39:02;;;;;;;1.88;1.70;;;;;;;20.09;53.67;100155.28;342067;28;1173;-78
2022/07/11 00:39:14;;;;;;;2.80;1.70;;;;;;;20.09;53.67;100150.00;342238;28;1101;-78
2022/07/11 00:39:25;;;;;;;2.90;1.75;;;;;;;20.08;53.59;100156.22;342162;28;1227;-78
2022/07/11 00:39:37;;;;;;;2.15;1.70;;;;;;;20.10;53.60;100159.63;341465;28;1992;-78
2022/07/11 00:39:49;;;;;;;2.40;1.77;;;;;;;20.11;53.72;100154.25;341978;28;1965;-78
2022/07/11 00:40:02;;;;;;;2.20;1.80;;;;;;;20.11;53.85;100162.16;342235;28;1165;-78
2022/07/11 00:40:14;;;;;;;3.05;1.88;;;;;;;20.11;53.77;100158.69;342081;28;2083;-79
2022/07/11 00:40:26;;;;;;;2.60;1.80;;;;;;;20.12;53.87;100149.81;342197;28;1434;-78
2022/07/11 00:40:39;;;;;;;2.65;1.80;;;;;;;20.12;54.02;100150.69;340799;29;1223;-78
2022/07/11 00:40:50;;;;;;;1.90;1.73;;;;;;;20.14;54.08;100155.81;340760;29;1064;-80
2022/07/11 00:41:03;;;;;;;1.83;1.67;;;;;;;20.13;54.26;100156.78;340194;28;1677;-80
2022/07/11 00:41:16;;;;;;;2.40;1.70;;;;;;;20.14;54.50;100153.19;340920;29;1046;-80
2022/07/11 00:41:28;;;;;;;2.20;1.75;;;;;;;20.13;54.47;100156.78;340397;29;2073;-80
2022/07/11 00:41:41;;;;;;;3.05;1.85;;;;;;;20.13;54.38;100151.50;340845;29;1692;-78
2022/07/11 00:41:53;;;;;;;3.45;1.90;;;;;;;20.13;54.60;100152.34;340439;29;1028;-78
2022/07/11 00:42:05;;;;;;;2.65;1.80;;;;;;;20.15;54.31;100149.63;341097;28;1234;-78
2022/07/11 00:42:17;;;;;;;1.98;1.70;;;;;;;20.16;54.09;100156.56;342210;28;1183;-78
2022/07/11 00:42:29;;;;;;;1.92;1.60;;;;;;;20.17;53.97;100153.00;341944;28;1745;-78
2022/07/11 00:42:41;;;;;;;1.98;1.70;;;;;;;20.18;54.05;100149.41;342147;28;1191;-77
2022/07/11 00:42:53;;;;;;;2.30;1.67;;;;;;;20.17;54.00;100153.00;342425;28;1575;-78
2022/07/11 00:43:06;;;;;;;2.10;1.70;;;;;;;20.18;53.87;100149.41;342753;28;1655;-81
2022/07/11 00:43:19;;;;;;;2.05;1.70;;;;;;;20.18;54.22;100153.84;342057;28;1846;-79
2022/07/11 00:43:38;;;;;;;2.08;1.65;;;;;;;20.18;54.52;100153.84;341550;28;1696;-78
2022/07/11 00:43:53;;;;;;;2.53;1.80;;;;;;;20.17;54.11;100153.00;341918;28;1401;-78
2022/07/11 00:44:06;;;;;;;2.05;1.80;;;;;;;20.18;54.11;100152.03;341861;28;1067;-77
2022/07/11 00:44:17;;;;;;;2.03;1.83;;;;;;;20.19;54.03;100145.00;342152;28;1070;-78
2022/07/11 00:44:29;;;;;;;2.00;1.80;;;;;;;20.19;53.65;100148.47;341766;28;1811;-77
2022/07/11 00:44:41;;;;;;;1.80;1.70;;;;;;;20.16;53.35;100151.28;340856;29;1195;-78
2022/07/11 00:44:53;;;;;;;2.10;1.83;;;;;;;20.16;53.22;100146.03;341046;29;1166;-78
2022/07/11 00:45:06;;;;;;;2.13;1.88;;;;;;;20.17;53.51;100141.63;341581;28;1667;-79
2022/07/11 00:45:18;;;;;;;2.08;1.80;;;;;;;20.17;53.28;100147.72;341964;28;1290;-78
2022/07/11 00:45:30;;;;;;;4.60;1.70;;;;;;;20.17;53.32;100142.44;341494;28;1817;-78
2022/07/11 00:45:42;;;;;;;4.80;1.70;;;;;;;20.18;53.30;100149.41;340098;29;1828;-77
2022/07/11 00:45:54;;;;;;;2.45;1.63;;;;;;;20.18;53.64;100148.56;340596;29;1148;-78
2022/07/11 00:46:07;;;;;;;1.98;1.60;;;;;;;20.19;53.30;100150.28;339311;29;1220;-77
2022/07/11 00:46:20;;;;;;;1.77;1.52;;;;;;;20.19;53.52;100145.00;339427;29;1093;-78
2022/07/11 00:46:32;;;;;;;1.63;1.52;;;;;;;20.17;53.50;100142.44;339726;29;1687;-78
2022/07/11 00:46:45;;;;;;;1.70;1.60;;;;;;;20.19;53.40;100145.84;339347;29;1668;-81
2022/07/11 00:46:57;;;;;;;1.67;1.58;;;;;;;20.19;53.25;100151.13;340119;29;1248;-79
2022/07/11 00:47:09;;;;;;;1.73;1.58;;;;;;;20.19;53.20;100140.56;339303;29;1769;-79
2022/07/11 00:47:21;;;;;;;1.67;1.52;;;;;;;20.21;53.34;100141.31;339597;28;1678;-81
2022/07/11 00:47:33;;;;;;;1.60;1.50;;;;;;;20.21;53.40;100149.22;340690;29;1721;-79
2022/07/11 00:47:45;;;;;;;1.80;1.70;;;;;;;20.20;53.48;100147.50;341643;28;1071;-80
2022/07/11 00:47:58;;;;;;;1.85;1.70;;;;;;;20.20;54.04;100147.50;341962;28;1314;-78
2022/07/11 00:48:10;;;;;;;2.00;1.80;;;;;;;20.19;53.84;100145.84;342340;28;1192;-78
2022/07/11 00:48:22;;;;;;;1.90;1.70;;;;;;;20.17;53.99;100150.38;341548;28;1675;-78
2022/07/11 00:48:38;;;;;;;2.10;1.60;;;;;;;20.16;53.92;100146.03;342241;28;1644;-77
2022/07/11 00:48:50;;;;;;;2.03;1.70;;;;;;;20.15;53.74;100150.47;341476;28;1993;-79
2022/07/11 00:49:02;;;;;;;1.83;1.70;;;;;;;20.11;53.77;100148.13;342465;28;1231;-77
2022/07/11 00:49:14;;;;;;;2.67;1.80;;;;;;;20.12;53.78;100144.53;342348;28;1159;-80
2022/07/11 00:49:26;;;;;;;2.88;1.85;;;;;;;20.13;53.95;100151.50;342357;28;1183;-80
2022/07/11 00:49:38;;;;;;;2.22;1.83;;;;;;;20.12;54.10;100150.69;341655;28;2022;-78
2022/07/11 00:49:50;;;;;;;2.20;1.85;;;;;;;20.13;54.31;100138.31;341985;28;1741;-77
2022/07/11 00:50:03;;;;;;;2.08;1.88;;;;;;;20.15;54.43;100149.63;341945;28;1263;-79
2022/07/11 00:50:16;;;;;;;1.90;1.80;;;;;;;20.14;54.57;100143.50;342236;28;1680;-78
2022/07/11 00:50:28;;;;;;;2.03;1.80;;;;;;;20.15;54.22;100144.34;343370;28;1753;-79
2022/07/11 00:50:40;;;;;;;2.10;1.80;;;;;;;20.18;54.11;100149.41;342005;28;1576;-77
2022/07/11 00:50:53;;;;;;;1.75;1.65;;;;;;;20.19;53.89;100145.84;342647;28;1008;-77
2022/07/11 00:51:05;;;;;;;1.77;1.67;;;;;;;20.20;53.82;100144.88;342480;28;1974;-78
2022/07/11 00:51:22;;;;;;;1.90;1.70;;;;;;;20.21;53.55;100146.59;340719;29;1206;-78
2022/07/11 00:51:34;;;;;;;2.28;1.88;;;;;;;20.19;53.57;100145.84;340900;28;2022;-77
2022/07/11 00:51:46;;;;;;;2.30;1.80;;;;;;;20.19;53.61;100140.56;341447;28;1234;-78
2022/07/11 00:51:58;;;;;;;2.63;1.80;;;;;;;20.18;53.63;100144.13;342182;28;1217;-77
2022/07/11 00:52:10;;;;;;;1.90;1.60;;;;;;;20.18;53.44;100144.13;342257;28;958;-77
2022/07/11 00:52:23;;;;;;;1.83;1.67;;;;;;;20.19;53.46;100140.56;341758;28;1894;-77
2022/07/11 00:52:35;;;;;;;2.00;1.75;;;;;;;20.18;53.59;100138.00;340929;28;1692;-80
2022/07/11 00:52:49;;;;;;;1.95;1.75;;;;;;;20.17;53.77;100147.72;340952;29;1044;-77
2022/07/11 00:53:01;;;;;;;2.35;1.70;;;;;;;20.15;53.72;100144.34;341664;28;1248;-79
2022/07/11 00:53:13;;;;;;;2.50;1.73;;;;;;;20.13;54.00;100140.94;341291;28;1632;-80
2022/07/11 00:53:26;;;;;;;3.28;1.90;;;;;;;20.08;53.68;100148.31;340858;29;1060;-79
2022/07/11 00:53:39;;;;;;;2.90;1.88;;;;;;;20.06;53.51;100144.91;340355;29;2033;-78
2022/07/11 00:53:55;;;;;;;2.30;1.80;;;;;;;20.06;53.59;100144.91;340862;29;1003;-78
2022/07/11 00:54:09;;;;;;;2.50;1.80;;;;;;;20.06;53.54;100139.66;340940;29;1149;-78
2022/07/11 00:54:22;;;;;;;2.63;1.80;;;;;;;20.07;53.52;100144.00;340966;29;1203;-80
2022/07/11 00:54:35;;;;;;;2.42;1.90;;;;;;;20.05;53.46;100143.25;341147;28;1661;-77
2022/07/11 00:54:47;;;;;;;2.38;1.90;;;;;;;20.06;53.60;100143.16;341826;28;1765;-80
2022/07/11 00:54:59;;;;;;;2.20;1.80;;;;;;;20.07;53.63;100144.00;341976;28;1194;-80
2022/07/11 00:55:11;;;;;;;2.28;1.77;;;;;;;20.08;53.64;100148.31;342977;28;1421;-81
2022/07/11 00:55:23;;;;;;;1.98;1.67;;;;;;;20.09;53.63;100144.75;343625;28;1309;-77
2022/07/11 00:55:35;;;;;;;2.13;1.77;;;;;;;20.09;53.41;100140.31;343564;28;1090;-79
2022/07/11 00:55:49;;;;;;;2.15;1.95;;;;;;;20.10;53.74;100146.41;343892;28;1055;-78
2022/07/11 00:56:01;;;;;;;1.98;1.88;;;;;;;20.09;53.75;100136.81;344060;28;1219;-78
2022/07/11 00:56:14;;;;;;;1.80;1.70;;;;;;;20.09;54.42;100150.00;342710;28;1163;-78
2022/07/11 00:56:29;;;;;;;1.80;1.70;;;;;;;20.07;54.22;100141.34;342292;28;1143;-78
2022/07/11 00:56:41;;;;;;;2.13;1.90;;;;;;;20.09;54.33;100147.38;342169;28;1798;-78
2022/07/11 00:56:54;;;;;;;2.17;1.80;;;;;;;20.09;54.61;100150.00;343401;28;1031;-78
2022/07/11 00:57:06;;;;;;;1.90;1.67;;;;;;;20.11;54.40;100148.13;343411;28;1036;-77
2022/07/11 00:57:18;;;;;;;1.80;1.70;;;;;;;20.12;54.62;100144.53;343346;28;1169;-78
2022/07/11 00:57:32;;;;;;;2.13;1.90;;;;;;;20.13;54.58;100147.06;342076;28;1227;-78
2022/07/11 00:57:44;;;;;;;2.03;1.80;;;;;;;20.13;54.31;100147.06;340929;29;1161;-79
2022/07/11 00:57:56;;;;;;;1.85;1.65;;;;;;;20.13;54.87;100143.59;341194;28;1182;-78
2022/07/11 00:58:08;;;;;;;2.20;1.83;;;;;;;20.13;54.79;100143.59;341786;28;1816;-79
2022/07/11 00:58:21;;;;;;;3.33;1.90;;;;;;;20.06;54.82;100145.78;341775;28;1824;-77
2022/07/11 00:58:34;;;;;;;2.85;1.70;;;;;;;20.02;54.70;100146.94;342478;28;1035;-79
2022/07/11 00:58:47;;;;;;;2.58;1.70;;;;;;;20.02;54.97;100143.44;342216;28;1183;-78
2022/07/11 00:59:00;;;;;;;2.85;1.90;;;;;;;20.04;55.06;100142.41;342102;28;1406;-78